createdAt,value
2023-03-06T00:00:59.786Z,-4.09
2023-03-06T00:06:02.209Z,-4.02
2023-03-06T00:11:03.760Z,-3.85
2023-03-06T00:16:07.024Z,-3.71
2023-03-06T00:21:09.054Z,-3.70
2023-03-06T00:26:10.655Z,-3.73
2023-03-06T00:31:12.198Z,-3.80
2023-03-06T00:36:13.772Z,-3.88
2023-03-06T00:41:15.320Z,-3.93
2023-03-06T00:46:16.834Z,-3.86
2023-03-06T00:51:19.783Z,-3.74
2023-03-06T00:56:21.412Z,-3.71
2023-03-06T01:01:23.440Z,-3.69
2023-03-06T01:06:24.991Z,-3.72
2023-03-06T01:11:26.505Z,-3.80
2023-03-06T01:16:27.996Z,-3.85
2023-03-06T01:21:29.497Z,-3.77
2023-03-06T01:26:31.741Z,-3.68
2023-03-06T01:31:33.604Z,-3.62
2023-03-06T01:36:35.240Z,-3.70
2023-03-06T01:41:36.958Z,-3.79
2023-03-06T01:46:43.901Z,-3.89
2023-03-06T01:51:50.211Z,-3.84
2023-03-06T01:56:55.682Z,-3.81
2023-03-06T02:02:01.795Z,-3.85
2023-03-06T02:07:06.668Z,-3.92
2023-03-06T02:12:11.388Z,-4.00
2023-03-06T02:17:15.205Z,-4.11
2023-03-06T02:22:16.882Z,-4.14
2023-03-06T02:27:19.885Z,-4.14
2023-03-06T02:32:21.443Z,-4.24
2023-03-06T02:37:24.894Z,-4.36
2023-03-06T02:42:29.018Z,-4.48
2023-03-06T02:47:31.046Z,-4.61
2023-03-06T02:52:32.677Z,-4.74
2023-03-06T02:57:34.215Z,-4.77
2023-03-06T03:02:35.872Z,-4.69
2023-03-06T03:07:37.385Z,-4.72
2023-03-06T03:12:39.549Z,-4.81
2023-03-06T03:17:43.133Z,-4.91
2023-03-06T03:22:53.072Z,-5.03
2023-03-06T03:27:54.585Z,-5.14
2023-03-06T03:32:56.138Z,-5.22
2023-03-06T03:37:57.627Z,-5.18
2023-03-06T03:42:59.123Z,-5.16
2023-03-06T03:48:00.614Z,-5.20
2023-03-06T03:53:02.138Z,-5.27
2023-03-06T03:58:03.729Z,-5.37
2023-03-06T04:03:05.224Z,-5.46
2023-03-06T04:08:06.697Z,-5.44
2023-03-06T04:13:09.967Z,-5.38
2023-03-06T04:18:11.770Z,-5.40
2023-03-06T04:23:14.123Z,-5.42
2023-03-06T04:28:16.244Z,-5.46
2023-03-06T04:33:18.193Z,-5.53
2023-03-06T04:38:19.697Z,-5.62
2023-03-06T04:43:21.366Z,-5.71
2023-03-06T04:48:22.873Z,-5.80
2023-03-06T04:53:24.517Z,-5.86
2023-03-06T04:58:26.009Z,-5.83
2023-03-06T05:03:27.607Z,-5.76
2023-03-06T05:08:29.537Z,-5.72
2023-03-06T05:13:31.062Z,-5.77
2023-03-06T05:18:33.982Z,-5.80
2023-03-06T05:23:38.547Z,-5.87
2023-03-06T05:28:41.124Z,-5.88
2023-03-06T05:33:42.616Z,-5.89
2023-03-06T05:38:44.118Z,-5.91
2023-03-06T05:43:45.593Z,-5.90
2023-03-06T05:48:47.190Z,-5.89
2023-03-06T05:53:48.744Z,-5.71
2023-03-06T05:58:51.879Z,-5.46
2023-03-06T06:03:53.417Z,-5.26
2023-03-06T06:08:54.925Z,-5.13
2023-03-06T06:13:56.474Z,-5.08
2023-03-06T06:18:58.522Z,-5.06
2023-03-06T06:24:00.078Z,-5.04
2023-03-06T06:29:04.399Z,-5.00
2023-03-06T06:34:06.789Z,-4.90
2023-03-06T06:39:09.488Z,-4.71
2023-03-06T06:44:15.513Z,-4.49
2023-03-06T06:49:17.548Z,-4.37
2023-03-06T06:54:20.144Z,-4.26
2023-03-06T06:59:23.765Z,-4.15
2023-03-06T07:04:25.354Z,-4.03
2023-03-06T07:09:26.918Z,-3.83
2023-03-06T07:14:28.432Z,-3.52
2023-03-06T07:19:29.955Z,-3.20
2023-03-06T07:24:31.650Z,-2.91
2023-03-06T07:29:34.596Z,-2.70
2023-03-06T07:34:36.524Z,-2.55
2023-03-06T07:39:38.264Z,-2.45
2023-03-06T07:44:40.363Z,-2.30
2023-03-06T07:49:41.890Z,-2.02
2023-03-06T07:54:43.466Z,-1.79
2023-03-06T07:59:44.960Z,-1.72
2023-03-06T08:04:53.427Z,-1.63
2023-03-06T08:09:55.393Z,-1.45
2023-03-06T08:14:57.575Z,-1.26
2023-03-06T08:19:59.211Z,-1.00
2023-03-06T08:25:00.881Z,-0.66
2023-03-06T08:30:02.743Z,-0.34
2023-03-06T08:35:05.013Z,-0.18
2023-03-06T08:40:10.599Z,0.02
2023-03-06T08:45:12.073Z,0.21
2023-03-06T08:50:13.945Z,0.33
2023-03-06T08:55:15.436Z,0.51
2023-03-06T09:00:18.055Z,0.84
2023-03-06T09:05:19.698Z,1.11
2023-03-06T09:10:24.021Z,1.36
2023-03-06T09:15:26.036Z,1.49
2023-03-06T09:20:27.800Z,1.71
2023-03-06T09:25:29.404Z,1.85
2023-03-06T09:30:31.088Z,2.07
2023-03-06T09:35:32.784Z,2.27
2023-03-06T09:40:57.403Z,2.32
2023-03-06T09:45:59.545Z,2.20
2023-03-06T09:51:17.331Z,2.32
2023-03-06T09:56:24.446Z,2.49
2023-03-06T10:01:35.033Z,2.68
2023-03-06T10:06:36.506Z,2.61
2023-03-06T10:11:56.680Z,2.50
2023-03-06T10:16:58.608Z,2.30
2023-03-06T10:22:29.094Z,2.24
2023-03-06T10:27:42.512Z,2.47
2023-03-06T10:33:02.539Z,2.53
2023-03-06T10:38:30.455Z,2.46
2023-03-06T10:43:35.204Z,2.29
2023-03-06T10:48:42.035Z,2.09
2023-03-06T10:53:57.749Z,1.93
2023-03-06T10:59:14.894Z,1.85
2023-03-06T11:04:36.291Z,1.76
2023-03-06T11:09:38.774Z,1.86
2023-03-06T11:14:40.536Z,1.99
2023-03-06T11:19:42.256Z,1.99
2023-03-06T11:24:49.231Z,2.16
2023-03-06T11:29:54.792Z,2.38
2023-03-06T11:35:02.407Z,2.46
2023-03-06T11:40:32.624Z,2.51
2023-03-06T11:46:21.825Z,2.53
2023-03-06T11:51:31.357Z,2.48
2023-03-06T11:56:36.110Z,2.45
2023-03-06T12:02:10.063Z,2.46
2023-03-06T12:07:22.280Z,2.37
2023-03-06T12:12:45.765Z,2.20
2023-03-06T12:18:15.231Z,2.08
2023-03-06T12:23:16.673Z,1.97
2023-03-06T12:28:52.287Z,1.83
2023-03-06T12:34:14.084Z,1.57
2023-03-06T12:39:42.796Z,1.46
2023-03-06T12:45:13.648Z,1.36
2023-03-06T12:50:26.485Z,1.43
2023-03-06T12:55:29.333Z,1.39
2023-03-06T13:00:37.590Z,1.32
2023-03-06T13:06:13.252Z,1.25
2023-03-06T13:11:52.998Z,1.32
2023-03-06T13:16:54.688Z,1.36
2023-03-06T13:21:56.210Z,1.32
2023-03-06T13:26:59.111Z,1.20
2023-03-06T13:32:00.700Z,1.13
2023-03-06T13:37:17.478Z,1.20
2023-03-06T13:42:37.052Z,1.17
2023-03-06T13:48:06.544Z,1.16
2023-03-06T13:53:20.467Z,1.33
2023-03-06T13:58:40.922Z,1.44
2023-03-06T14:04:04.537Z,1.36
2023-03-06T14:09:22.565Z,1.31
2023-03-06T14:14:34.493Z,1.30
2023-03-06T14:19:38.685Z,1.50
2023-03-06T14:24:51.080Z,1.57
2023-03-06T14:30:05.535Z,1.57
2023-03-06T14:35:18.912Z,1.47
2023-03-06T14:40:27.631Z,1.49
2023-03-06T14:45:29.306Z,1.68
2023-03-06T14:50:34.539Z,1.86
2023-03-06T14:55:36.943Z,2.01
2023-03-06T15:00:44.847Z,2.11
2023-03-06T15:05:47.789Z,2.16
2023-03-06T15:11:04.826Z,2.21
2023-03-06T15:16:08.585Z,2.30
2023-03-06T15:21:22.364Z,2.39
2023-03-06T15:26:29.332Z,2.37
2023-03-06T15:31:33.208Z,2.34
2023-03-06T15:36:55.040Z,2.23
2023-03-06T15:42:01.731Z,2.24
2023-03-06T15:47:08.775Z,2.19
2023-03-06T15:52:10.849Z,2.07
2023-03-06T15:57:19.062Z,1.97
2023-03-06T16:02:22.935Z,1.90
2023-03-06T16:07:24.526Z,1.90
2023-03-06T16:12:26.895Z,1.87
2023-03-06T16:17:28.473Z,1.88
2023-03-06T16:22:30.047Z,1.85
2023-03-06T16:27:31.580Z,1.90
2023-03-06T16:32:33.505Z,1.89
2023-03-06T16:37:35.278Z,1.81
2023-03-06T16:42:36.782Z,1.70
2023-03-06T16:47:38.423Z,1.61
2023-03-06T16:52:40.070Z,1.67
2023-03-06T16:57:41.614Z,1.81
2023-03-06T17:02:43.569Z,1.85
2023-03-06T17:07:45.784Z,1.80
2023-03-06T17:12:47.328Z,1.76
2023-03-06T17:17:48.967Z,1.70
2023-03-06T17:22:50.613Z,1.72
2023-03-06T17:27:52.170Z,1.83
2023-03-06T17:32:53.685Z,1.82
2023-03-06T17:37:56.694Z,1.81
2023-03-06T17:42:58.403Z,1.72
2023-03-06T17:48:00.520Z,1.60
2023-03-06T17:53:03.084Z,1.58
2023-03-06T17:58:04.569Z,1.63
2023-03-06T18:03:06.176Z,1.64
2023-03-06T18:08:10.326Z,1.67
2023-03-06T18:13:11.873Z,1.63
2023-03-06T18:18:13.455Z,1.56
2023-03-06T18:23:15.319Z,1.64
2023-03-06T18:28:16.912Z,1.76
2023-03-06T18:33:18.376Z,1.85
2023-03-06T18:38:19.919Z,1.84
2023-03-06T18:43:21.420Z,1.77
2023-03-06T18:48:24.206Z,1.61
2023-03-06T18:53:25.681Z,1.41
2023-03-06T18:58:27.172Z,1.47
2023-03-06T19:03:28.690Z,1.44
2023-03-06T19:08:32.261Z,1.41
2023-03-06T19:13:34.601Z,1.33
2023-03-06T19:18:36.167Z,1.34
2023-03-06T19:23:38.067Z,1.34
2023-03-06T19:28:44.384Z,1.33
2023-03-06T19:33:47.882Z,1.29
2023-03-06T19:38:53.723Z,1.28
2023-03-06T19:43:58.353Z,1.35
2023-03-06T19:49:09.649Z,1.48
2023-03-06T19:54:12.660Z,1.51
2023-03-06T19:59:14.280Z,1.37
2023-03-06T20:04:16.926Z,1.32
2023-03-06T20:09:19.373Z,1.34
2023-03-06T20:14:21.090Z,1.43
2023-03-06T20:19:22.650Z,1.54
2023-03-06T20:24:26.013Z,1.59
2023-03-06T20:29:28.465Z,1.61
2023-03-06T20:34:30.508Z,1.59
2023-03-06T20:39:32.102Z,1.66
2023-03-06T20:44:33.946Z,1.76
2023-03-06T20:49:36.671Z,1.78
2023-03-06T20:54:38.258Z,1.73
2023-03-06T20:59:39.771Z,1.66
2023-03-06T21:04:41.472Z,1.57
2023-03-06T21:09:43.214Z,1.61
2023-03-06T21:14:44.744Z,1.73
2023-03-06T21:19:46.473Z,1.78
2023-03-06T21:24:48.000Z,1.71
2023-03-06T21:29:49.606Z,1.60
2023-03-06T21:34:51.247Z,1.49
2023-03-06T21:39:52.748Z,1.36
2023-03-06T21:44:54.261Z,1.36
2023-03-06T21:49:55.729Z,1.42
2023-03-06T21:54:57.221Z,1.41
2023-03-06T21:59:58.707Z,1.39
2023-03-06T22:05:00.291Z,1.25
2023-03-06T22:10:02.167Z,1.11
2023-03-06T22:15:04.703Z,1.01
2023-03-06T22:20:07.461Z,1.03
2023-03-06T22:25:09.765Z,1.09
2023-03-06T22:30:12.110Z,1.12
2023-03-06T22:35:13.656Z,1.03
2023-03-06T22:40:15.259Z,0.97
2023-03-06T22:45:17.144Z,0.90
2023-03-06T22:50:18.933Z,0.87
2023-03-06T22:55:20.414Z,0.91
2023-03-06T23:00:23.261Z,0.88
2023-03-06T23:05:24.804Z,0.84
2023-03-06T23:10:26.325Z,0.78
2023-03-06T23:15:27.850Z,0.72
2023-03-06T23:20:29.422Z,0.64
2023-03-06T23:25:30.951Z,0.64
2023-03-06T23:30:32.427Z,0.68
2023-03-06T23:35:35.406Z,0.66
2023-03-06T23:40:37.611Z,0.62
2023-03-06T23:45:39.119Z,0.52
2023-03-06T23:50:41.254Z,0.45
2023-03-06T23:55:44.342Z,0.52
